sensor_id;sensor_type;location;lat;lon;timestamp;temperature;humidity
22383;DHT22;11359;45.802;13.530;2022-08-21T00:01:26;26.70;50.70
22383;DHT22;11359;45.802;13.530;2022-08-21T00:03:54;26.70;50.70
22383;DHT22;11359;45.802;13.530;2022-08-21T00:06:20;26.70;50.70
22383;DHT22;11359;45.802;13.530;2022-08-21T00:08:46;26.60;50.70
22383;DHT22;11359;45.802;13.530;2022-08-21T00:11:12;26.60;50.70
22383;DHT22;11359;45.802;13.530;2022-08-21T00:13:38;26.60;50.70
22383;DHT22;11359;45.802;13.530;2022-08-21T00:16:05;26.60;50.80
22383;DHT22;11359;45.802;13.530;2022-08-21T00:18:31;26.50;50.70
22383;DHT22;11359;45.802;13.530;2022-08-21T00:20:56;26.50;50.70
22383;DHT22;11359;45.802;13.530;2022-08-21T00:23:22;26.50;50.70
22383;DHT22;11359;45.802;13.530;2022-08-21T00:25:48;26.40;50.60
22383;DHT22;11359;45.802;13.530;2022-08-21T00:28:14;26.40;50.70
22383;DHT22;11359;45.802;13.530;2022-08-21T00:30:41;26.40;50.70
22383;DHT22;11359;45.802;13.530;2022-08-21T00:33:08;26.40;50.80
22383;DHT22;11359;45.802;13.530;2022-08-21T00:35:37;26.40;50.90
22383;DHT22;11359;45.802;13.530;2022-08-21T00:38:04;26.40;50.80
22383;DHT22;11359;45.802;13.530;2022-08-21T00:40:44;26.40;50.90
22383;DHT22;11359;45.802;13.530;2022-08-21T00:43:13;26.40;50.90
22383;DHT22;11359;45.802;13.530;2022-08-21T00:45:38;26.40;50.90
22383;DHT22;11359;45.802;13.530;2022-08-21T00:48:05;26.40;51.00
22383;DHT22;11359;45.802;13.530;2022-08-21T00:50:34;26.30;50.90
22383;DHT22;11359;45.802;13.530;2022-08-21T00:53:02;26.30;50.90
22383;DHT22;11359;45.802;13.530;2022-08-21T00:55:29;26.30;50.90
22383;DHT22;11359;45.802;13.530;2022-08-21T00:57:57;26.30;51.00
22383;DHT22;11359;45.802;13.530;2022-08-21T01:00:31;26.20;51.00
22383;DHT22;11359;45.802;13.530;2022-08-21T01:02:57;26.20;51.00
22383;DHT22;11359;45.802;13.530;2022-08-21T01:05:23;26.20;51.10
22383;DHT22;11359;45.802;13.530;2022-08-21T01:07:49;26.20;51.20
22383;DHT22;11359;45.802;13.530;2022-08-21T01:10:16;26.20;51.20
22383;DHT22;11359;45.802;13.530;2022-08-21T01:12:42;26.20;51.30
22383;DHT22;11359;45.802;13.530;2022-08-21T01:15:09;26.10;51.30
22383;DHT22;11359;45.802;13.530;2022-08-21T01:17:36;26.10;51.20
22383;DHT22;11359;45.802;13.530;2022-08-21T01:20:06;26.10;51.10
22383;DHT22;11359;45.802;13.530;2022-08-21T01:22:33;26.10;51.10
22383;DHT22;11359;45.802;13.530;2022-08-21T01:24:59;26.10;51.10
22383;DHT22;11359;45.802;13.530;2022-08-21T01:27:24;26.10;51.10
22383;DHT22;11359;45.802;13.530;2022-08-21T01:30:01;26.10;51.10
22383;DHT22;11359;45.802;13.530;2022-08-21T01:32:28;26.00;51.10
22383;DHT22;11359;45.802;13.530;2022-08-21T01:34:54;26.00;51.00
22383;DHT22;11359;45.802;13.530;2022-08-21T01:37:20;26.00;51.00
22383;DHT22;11359;45.802;13.530;2022-08-21T01:39:47;26.00;51.00
22383;DHT22;11359;45.802;13.530;2022-08-21T01:42:13;26.00;50.90
22383;DHT22;11359;45.802;13.530;2022-08-21T01:44:39;26.00;50.90
22383;DHT22;11359;45.802;13.530;2022-08-21T01:47:10;26.00;50.90
22383;DHT22;11359;45.802;13.530;2022-08-21T01:49:37;26.00;50.90
22383;DHT22;11359;45.802;13.530;2022-08-21T01:52:04;25.90;50.80
22383;DHT22;11359;45.802;13.530;2022-08-21T01:54:31;25.90;50.80
22383;DHT22;11359;45.802;13.530;2022-08-21T01:56:58;25.90;50.80
22383;DHT22;11359;45.802;13.530;2022-08-21T01:59:25;25.90;50.80
22383;DHT22;11359;45.802;13.530;2022-08-21T02:01:51;25.90;50.80
22383;DHT22;11359;45.802;13.530;2022-08-21T02:04:19;25.90;50.80
22383;DHT22;11359;45.802;13.530;2022-08-21T02:06:46;25.90;50.90
22383;DHT22;11359;45.802;13.530;2022-08-21T02:09:12;25.80;50.80
22383;DHT22;11359;45.802;13.530;2022-08-21T02:11:40;25.80;50.80
22383;DHT22;11359;45.802;13.530;2022-08-21T02:14:08;25.80;50.80
22383;DHT22;11359;45.802;13.530;2022-08-21T02:16:34;25.80;50.80
22383;DHT22;11359;45.802;13.530;2022-08-21T02:19:00;25.80;50.90
22383;DHT22;11359;45.802;13.530;2022-08-21T02:21:26;25.80;50.80
22383;DHT22;11359;45.802;13.530;2022-08-21T02:23:51;25.80;50.80
22383;DHT22;11359;45.802;13.530;2022-08-21T02:26:17;25.70;50.80
22383;DHT22;11359;45.802;13.530;2022-08-21T02:28:43;25.70;50.80
22383;DHT22;11359;45.802;13.530;2022-08-21T02:31:09;25.70;50.80
22383;DHT22;11359;45.802;13.530;2022-08-21T02:33:35;25.70;50.70
22383;DHT22;11359;45.802;13.530;2022-08-21T02:36:03;25.70;50.80
22383;DHT22;11359;45.802;13.530;2022-08-21T02:38:31;25.70;50.80
22383;DHT22;11359;45.802;13.530;2022-08-21T02:41:04;25.70;50.90
22383;DHT22;11359;45.802;13.530;2022-08-21T02:43:30;25.70;50.90
22383;DHT22;11359;45.802;13.530;2022-08-21T02:45:57;25.70;50.90
22383;DHT22;11359;45.802;13.530;2022-08-21T02:48:26;25.60;50.80
22383;DHT22;11359;45.802;13.530;2022-08-21T02:51:05;25.60;50.80
22383;DHT22;11359;45.802;13.530;2022-08-21T02:53:31;25.60;50.90
22383;DHT22;11359;45.802;13.530;2022-08-21T02:56:00;25.60;50.80
22383;DHT22;11359;45.802;13.530;2022-08-21T02:58:31;25.60;50.80
22383;DHT22;11359;45.802;13.530;2022-08-21T03:00:58;25.50;50.80
22383;DHT22;11359;45.802;13.530;2022-08-21T03:03:25;25.50;50.80
22383;DHT22;11359;45.802;13.530;2022-08-21T03:05:51;25.50;50.90
22383;DHT22;11359;45.802;13.530;2022-08-21T03:08:17;25.40;50.90
22383;DHT22;11359;45.802;13.530;2022-08-21T03:10:47;25.40;50.90
22383;DHT22;11359;45.802;13.530;2022-08-21T03:13:14;25.40;50.90
22383;DHT22;11359;45.802;13.530;2022-08-21T03:15:41;25.40;51.00
22383;DHT22;11359;45.802;13.530;2022-08-21T03:18:08;25.40;51.00
22383;DHT22;11359;45.802;13.530;2022-08-21T03:20:36;25.30;51.00
22383;DHT22;11359;45.802;13.530;2022-08-21T03:23:04;25.30;51.00
22383;DHT22;11359;45.802;13.530;2022-08-21T03:25:31;25.30;51.10
22383;DHT22;11359;45.802;13.530;2022-08-21T03:28:01;25.30;51.10
22383;DHT22;11359;45.802;13.530;2022-08-21T03:30:27;25.30;51.10
22383;DHT22;11359;45.802;13.530;2022-08-21T03:32:53;25.30;51.10
22383;DHT22;11359;45.802;13.530;2022-08-21T03:35:20;25.20;51.00
22383;DHT22;11359;45.802;13.530;2022-08-21T03:37:46;25.20;51.00
22383;DHT22;11359;45.802;13.530;2022-08-21T03:40:15;25.20;51.00
22383;DHT22;11359;45.802;13.530;2022-08-21T03:42:41;25.20;51.00
22383;DHT22;11359;45.802;13.530;2022-08-21T03:45:08;25.20;51.00
22383;DHT22;11359;45.802;13.530;2022-08-21T03:47:34;25.20;51.00
22383;DHT22;11359;45.802;13.530;2022-08-21T03:50:00;25.20;51.00
22383;DHT22;11359;45.802;13.530;2022-08-21T03:52:26;25.20;51.00
22383;DHT22;11359;45.802;13.530;2022-08-21T03:54:52;25.10;51.00
22383;DHT22;11359;45.802;13.530;2022-08-21T03:57:17;25.10;51.00
22383;DHT22;11359;45.802;13.530;2022-08-21T03:59:44;25.10;51.00
22383;DHT22;11359;45.802;13.530;2022-08-21T04:02:10;25.10;51.00
22383;DHT22;11359;45.802;13.530;2022-08-21T04:04:36;25.10;51.00
22383;DHT22;11359;45.802;13.530;2022-08-21T04:07:02;25.10;51.70
22383;DHT22;11359;45.802;13.530;2022-08-21T04:09:28;25.10;51.10
22383;DHT22;11359;45.802;13.530;2022-08-21T04:11:56;25.00;51.00
22383;DHT22;11359;45.802;13.530;2022-08-21T04:14:22;25.00;50.90
22383;DHT22;11359;45.802;13.530;2022-08-21T04:16:48;25.00;51.00
22383;DHT22;11359;45.802;13.530;2022-08-21T04:19:14;24.90;51.00
22383;DHT22;11359;45.802;13.530;2022-08-21T04:21:41;24.90;51.10
22383;DHT22;11359;45.802;13.530;2022-08-21T04:24:08;24.90;51.20
22383;DHT22;11359;45.802;13.530;2022-08-21T04:26:36;24.90;51.20
22383;DHT22;11359;45.802;13.530;2022-08-21T04:29:02;24.90;51.30
22383;DHT22;11359;45.802;13.530;2022-08-21T04:31:30;24.90;51.30
22383;DHT22;11359;45.802;13.530;2022-08-21T04:33:56;24.80;51.30
22383;DHT22;11359;45.802;13.530;2022-08-21T04:36:22;24.90;51.40
22383;DHT22;11359;45.802;13.530;2022-08-21T04:38:48;24.80;51.30
22383;DHT22;11359;45.802;13.530;2022-08-21T04:41:14;24.80;51.40
22383;DHT22;11359;45.802;13.530;2022-08-21T04:43:40;24.70;51.40
22383;DHT22;11359;45.802;13.530;2022-08-21T04:46:05;24.70;51.50
22383;DHT22;11359;45.802;13.530;2022-08-21T04:48:32;24.70;51.50
22383;DHT22;11359;45.802;13.530;2022-08-21T04:51:13;24.70;51.60
22383;DHT22;11359;45.802;13.530;2022-08-21T04:53:53;24.70;51.60
22383;DHT22;11359;45.802;13.530;2022-08-21T04:56:28;24.60;51.60
22383;DHT22;11359;45.802;13.530;2022-08-21T04:58:58;24.60;51.70
22383;DHT22;11359;45.802;13.530;2022-08-21T05:01:27;24.60;51.70
22383;DHT22;11359;45.802;13.530;2022-08-21T05:03:57;24.60;51.80
22383;DHT22;11359;45.802;13.530;2022-08-21T05:06:24;24.60;51.90
22383;DHT22;11359;45.802;13.530;2022-08-21T05:08:52;24.60;51.90
22383;DHT22;11359;45.802;13.530;2022-08-21T05:11:19;24.60;52.00
22383;DHT22;11359;45.802;13.530;2022-08-21T05:13:46;24.60;52.00
22383;DHT22;11359;45.802;13.530;2022-08-21T05:16:12;24.60;52.10
22383;DHT22;11359;45.802;13.530;2022-08-21T05:18:38;24.60;52.10
22383;DHT22;11359;45.802;13.530;2022-08-21T05:21:04;24.60;52.10
22383;DHT22;11359;45.802;13.530;2022-08-21T05:23:30;24.60;52.20
22383;DHT22;11359;45.802;13.530;2022-08-21T05:25:56;24.60;52.20
22383;DHT22;11359;45.802;13.530;2022-08-21T05:28:22;24.60;52.30
22383;DHT22;11359;45.802;13.530;2022-08-21T05:30:48;24.60;52.30
22383;DHT22;11359;45.802;13.530;2022-08-21T05:33:14;24.60;52.40
22383;DHT22;11359;45.802;13.530;2022-08-21T05:35:40;24.60;52.40
22383;DHT22;11359;45.802;13.530;2022-08-21T05:38:06;24.60;52.40
22383;DHT22;11359;45.802;13.530;2022-08-21T05:40:32;24.70;52.50
22383;DHT22;11359;45.802;13.530;2022-08-21T05:42:58;24.70;52.50
22383;DHT22;11359;45.802;13.530;2022-08-21T05:45:27;24.70;52.60
22383;DHT22;11359;45.802;13.530;2022-08-21T05:47:53;24.70;52.60
22383;DHT22;11359;45.802;13.530;2022-08-21T05:50:20;24.70;52.60
22383;DHT22;11359;45.802;13.530;2022-08-21T05:52:45;24.80;52.60
22383;DHT22;11359;45.802;13.530;2022-08-21T05:55:11;24.80;52.60
22383;DHT22;11359;45.802;13.530;2022-08-21T05:57:37;24.80;52.60
22383;DHT22;11359;45.802;13.530;2022-08-21T06:00:07;24.80;52.60
22383;DHT22;11359;45.802;13.530;2022-08-21T06:02:34;24.90;52.60
22383;DHT22;11359;45.802;13.530;2022-08-21T06:05:01;24.90;52.70
22383;DHT22;11359;45.802;13.530;2022-08-21T06:07:27;24.90;52.60
22383;DHT22;11359;45.802;13.530;2022-08-21T06:09:52;24.90;52.60
22383;DHT22;11359;45.802;13.530;2022-08-21T06:12:18;25.00;52.70
22383;DHT22;11359;45.802;13.530;2022-08-21T06:14:43;25.00;52.70
22383;DHT22;11359;45.802;13.530;2022-08-21T06:17:11;25.00;52.70
22383;DHT22;11359;45.802;13.530;2022-08-21T06:19:38;25.10;52.80
22383;DHT22;11359;45.802;13.530;2022-08-21T06:22:04;25.10;52.70
22383;DHT22;11359;45.802;13.530;2022-08-21T06:24:30;25.10;52.80
22383;DHT22;11359;45.802;13.530;2022-08-21T06:26:56;25.20;52.80
22383;DHT22;11359;45.802;13.530;2022-08-21T06:29:23;25.20;52.80
22383;DHT22;11359;45.802;13.530;2022-08-21T06:31:50;25.20;52.70
22383;DHT22;11359;45.802;13.530;2022-08-21T06:34:17;25.20;52.70
22383;DHT22;11359;45.802;13.530;2022-08-21T06:36:43;25.30;52.70
22383;DHT22;11359;45.802;13.530;2022-08-21T06:39:09;25.30;52.60
22383;DHT22;11359;45.802;13.530;2022-08-21T06:41:35;25.30;52.60
22383;DHT22;11359;45.802;13.530;2022-08-21T06:44:01;25.30;52.60
22383;DHT22;11359;45.802;13.530;2022-08-21T06:46:28;25.30;52.60
22383;DHT22;11359;45.802;13.530;2022-08-21T06:48:54;25.30;52.60
22383;DHT22;11359;45.802;13.530;2022-08-21T06:51:21;25.30;52.60
22383;DHT22;11359;45.802;13.530;2022-08-21T06:53:46;25.30;52.50
22383;DHT22;11359;45.802;13.530;2022-08-21T06:56:12;25.40;52.60
22383;DHT22;11359;45.802;13.530;2022-08-21T06:58:38;25.40;52.60
22383;DHT22;11359;45.802;13.530;2022-08-21T07:01:04;25.40;52.60
22383;DHT22;11359;45.802;13.530;2022-08-21T07:03:36;25.40;52.60
22383;DHT22;11359;45.802;13.530;2022-08-21T07:06:06;25.40;52.50
22383;DHT22;11359;45.802;13.530;2022-08-21T07:08:32;25.40;52.50
22383;DHT22;11359;45.802;13.530;2022-08-21T07:11:00;25.50;52.60
22383;DHT22;11359;45.802;13.530;2022-08-21T07:13:27;25.50;52.60
22383;DHT22;11359;45.802;13.530;2022-08-21T07:15:53;25.50;52.40
22383;DHT22;11359;45.802;13.530;2022-08-21T07:18:19;25.50;52.40
22383;DHT22;11359;45.802;13.530;2022-08-21T07:20:45;25.50;52.40
22383;DHT22;11359;45.802;13.530;2022-08-21T07:23:38;25.50;52.40
22383;DHT22;11359;45.802;13.530;2022-08-21T07:26:02;25.60;52.40
22383;DHT22;11359;45.802;13.530;2022-08-21T07:28:29;25.60;52.40
22383;DHT22;11359;45.802;13.530;2022-08-21T07:30:57;25.60;52.40
22383;DHT22;11359;45.802;13.530;2022-08-21T07:33:26;25.60;52.40
22383;DHT22;11359;45.802;13.530;2022-08-21T07:35:52;25.70;52.40
22383;DHT22;11359;45.802;13.530;2022-08-21T07:38:18;25.70;52.40
22383;DHT22;11359;45.802;13.530;2022-08-21T07:40:45;25.70;52.50
22383;DHT22;11359;45.802;13.530;2022-08-21T07:43:11;25.70;52.40
22383;DHT22;11359;45.802;13.530;2022-08-21T07:45:38;25.80;52.60
22383;DHT22;11359;45.802;13.530;2022-08-21T07:48:04;25.80;52.50
22383;DHT22;11359;45.802;13.530;2022-08-21T07:50:30;25.80;52.60
22383;DHT22;11359;45.802;13.530;2022-08-21T07:52:56;25.90;52.70
22383;DHT22;11359;45.802;13.530;2022-08-21T07:55:23;25.90;52.70
22383;DHT22;11359;45.802;13.530;2022-08-21T07:57:49;25.90;52.70
22383;DHT22;11359;45.802;13.530;2022-08-21T08:00:18;26.00;52.60
22383;DHT22;11359;45.802;13.530;2022-08-21T08:02:47;26.00;52.50
22383;DHT22;11359;45.802;13.530;2022-08-21T08:05:18;26.00;52.50
22383;DHT22;11359;45.802;13.530;2022-08-21T08:07:43;26.00;52.50
22383;DHT22;11359;45.802;13.530;2022-08-21T08:10:09;26.10;52.50
22383;DHT22;11359;45.802;13.530;2022-08-21T08:12:38;26.10;52.40
22383;DHT22;11359;45.802;13.530;2022-08-21T08:15:07;26.10;52.40
22383;DHT22;11359;45.802;13.530;2022-08-21T08:17:33;26.10;52.40
22383;DHT22;11359;45.802;13.530;2022-08-21T08:19:59;26.10;52.40
22383;DHT22;11359;45.802;13.530;2022-08-21T08:22:26;26.20;52.50
22383;DHT22;11359;45.802;13.530;2022-08-21T08:24:53;26.20;52.50
22383;DHT22;11359;45.802;13.530;2022-08-21T08:27:19;26.20;52.50
22383;DHT22;11359;45.802;13.530;2022-08-21T08:29:46;26.30;52.60
22383;DHT22;11359;45.802;13.530;2022-08-21T08:32:12;26.30;52.60
22383;DHT22;11359;45.802;13.530;2022-08-21T08:34:38;26.30;52.70
22383;DHT22;11359;45.802;13.530;2022-08-21T08:37:05;26.30;52.70
22383;DHT22;11359;45.802;13.530;2022-08-21T08:39:32;26.40;52.80
22383;DHT22;11359;45.802;13.530;2022-08-21T08:42:12;26.40;52.90
22383;DHT22;11359;45.802;13.530;2022-08-21T08:44:44;26.40;53.10
22383;DHT22;11359;45.802;13.530;2022-08-21T08:47:16;26.40;53.10
22383;DHT22;11359;45.802;13.530;2022-08-21T08:49:53;26.50;53.30
22383;DHT22;11359;45.802;13.530;2022-08-21T08:55:03;26.50;53.40
22383;DHT22;11359;45.802;13.530;2022-08-21T08:57:30;26.50;53.50
22383;DHT22;11359;45.802;13.530;2022-08-21T09:00:00;26.50;53.50
22383;DHT22;11359;45.802;13.530;2022-08-21T09:02:26;26.50;53.60
22383;DHT22;11359;45.802;13.530;2022-08-21T09:04:55;26.50;53.70
22383;DHT22;11359;45.802;13.530;2022-08-21T09:26:05;26.80;54.10
22383;DHT22;11359;45.802;13.530;2022-08-21T09:28:34;26.80;54.10
22383;DHT22;11359;45.802;13.530;2022-08-21T09:31:02;26.80;54.00
22383;DHT22;11359;45.802;13.530;2022-08-21T09:33:29;26.90;54.10
22383;DHT22;11359;45.802;13.530;2022-08-21T09:35:56;26.90;54.00
22383;DHT22;11359;45.802;13.530;2022-08-21T09:38:35;27.00;53.90
22383;DHT22;11359;45.802;13.530;2022-08-21T09:41:07;27.10;53.80
22383;DHT22;11359;45.802;13.530;2022-08-21T09:43:34;27.10;53.70
22383;DHT22;11359;45.802;13.530;2022-08-21T09:46:19;27.10;53.60
22383;DHT22;11359;45.802;13.530;2022-08-21T09:48:47;27.20;53.60
22383;DHT22;11359;45.802;13.530;2022-08-21T09:51:19;27.20;53.50
22383;DHT22;11359;45.802;13.530;2022-08-21T09:53:55;27.30;53.50
22383;DHT22;11359;45.802;13.530;2022-08-21T09:56:34;27.30;53.30
22383;DHT22;11359;45.802;13.530;2022-08-21T09:59:33;27.40;53.20
22383;DHT22;11359;45.802;13.530;2022-08-21T10:02:01;27.40;53.00
22383;DHT22;11359;45.802;13.530;2022-08-21T10:04:31;27.40;52.90
22383;DHT22;11359;45.802;13.530;2022-08-21T10:07:11;27.40;52.80
22383;DHT22;11359;45.802;13.530;2022-08-21T10:09:38;27.40;52.60
22383;DHT22;11359;45.802;13.530;2022-08-21T10:14:48;27.50;52.50
22383;DHT22;11359;45.802;13.530;2022-08-21T10:25:23;27.50;52.30
22383;DHT22;11359;45.802;13.530;2022-08-21T10:33:13;27.50;53.00
22383;DHT22;11359;45.802;13.530;2022-08-21T10:41:43;27.60;52.30
22383;DHT22;11359;45.802;13.530;2022-08-21T10:47:13;27.70;52.30
22383;DHT22;11359;45.802;13.530;2022-08-21T10:52:29;27.70;52.20
22383;DHT22;11359;45.802;13.530;2022-08-21T10:55:12;27.70;52.30
22383;DHT22;11359;45.802;13.530;2022-08-21T11:00:49;27.80;52.30
22383;DHT22;11359;45.802;13.530;2022-08-21T11:03:18;27.90;52.30
22383;DHT22;11359;45.802;13.530;2022-08-21T11:05:52;27.90;52.20
22383;DHT22;11359;45.802;13.530;2022-08-21T11:08:43;27.90;52.10
22383;DHT22;11359;45.802;13.530;2022-08-21T11:11:13;28.00;52.10
22383;DHT22;11359;45.802;13.530;2022-08-21T11:13:51;28.00;52.00
22383;DHT22;11359;45.802;13.530;2022-08-21T11:16:33;28.00;51.90
22383;DHT22;11359;45.802;13.530;2022-08-21T11:19:19;28.00;51.80
22383;DHT22;11359;45.802;13.530;2022-08-21T11:22:04;28.00;51.70
22383;DHT22;11359;45.802;13.530;2022-08-21T11:27:45;28.10;51.60
22383;DHT22;11359;45.802;13.530;2022-08-21T11:30:13;28.20;51.60
22383;DHT22;11359;45.802;13.530;2022-08-21T11:33:09;28.20;51.50
22383;DHT22;11359;45.802;13.530;2022-08-21T11:35:51;28.20;51.20
22383;DHT22;11359;45.802;13.530;2022-08-21T11:38:26;28.20;51.00
22383;DHT22;11359;45.802;13.530;2022-08-21T11:43:47;28.20;50.80
22383;DHT22;11359;45.802;13.530;2022-08-21T11:49:11;28.30;50.80
22383;DHT22;11359;45.802;13.530;2022-08-21T11:52:13;28.30;50.60
22383;DHT22;11359;45.802;13.530;2022-08-21T11:55:11;28.40;50.60
22383;DHT22;11359;45.802;13.530;2022-08-21T12:00:22;28.40;50.30
22383;DHT22;11359;45.802;13.530;2022-08-21T12:02:54;28.40;50.10
22383;DHT22;11359;45.802;13.530;2022-08-21T12:05:33;28.50;50.00
22383;DHT22;11359;45.802;13.530;2022-08-21T12:08:14;28.50;49.90
22383;DHT22;11359;45.802;13.530;2022-08-21T12:10:46;28.50;50.00
22383;DHT22;11359;45.802;13.530;2022-08-21T12:13:24;28.50;50.00
22383;DHT22;11359;45.802;13.530;2022-08-21T12:15:50;28.60;50.00
22383;DHT22;11359;45.802;13.530;2022-08-21T12:18:37;28.60;50.00
22383;DHT22;11359;45.802;13.530;2022-08-21T12:21:27;28.70;49.90
22383;DHT22;11359;45.802;13.530;2022-08-21T12:25:03;28.70;49.80
22383;DHT22;11359;45.802;13.530;2022-08-21T12:27:12;28.80;49.70
22383;DHT22;11359;45.802;13.530;2022-08-21T12:29:39;28.80;49.60
22383;DHT22;11359;45.802;13.530;2022-08-21T12:34:50;28.90;49.30
22383;DHT22;11359;45.802;13.530;2022-08-21T12:39:48;29.00;49.50
22383;DHT22;11359;45.802;13.530;2022-08-21T12:42:19;29.00;49.40
22383;DHT22;11359;45.802;13.530;2022-08-21T12:47:19;29.10;49.50
22383;DHT22;11359;45.802;13.530;2022-08-21T12:55:41;29.20;49.50
22383;DHT22;11359;45.802;13.530;2022-08-21T12:58:17;29.20;49.30
22383;DHT22;11359;45.802;13.530;2022-08-21T13:00:50;29.30;49.20
22383;DHT22;11359;45.802;13.530;2022-08-21T13:03:17;29.30;49.00
22383;DHT22;11359;45.802;13.530;2022-08-21T13:05:43;29.30;48.80
22383;DHT22;11359;45.802;13.530;2022-08-21T13:08:11;29.40;49.00
22383;DHT22;11359;45.802;13.530;2022-08-21T13:10:40;29.40;49.00
22383;DHT22;11359;45.802;13.530;2022-08-21T13:13:12;29.40;48.60
22383;DHT22;11359;45.802;13.530;2022-08-21T13:15:42;29.50;48.60
22383;DHT22;11359;45.802;13.530;2022-08-21T13:18:08;29.60;48.60
22383;DHT22;11359;45.802;13.530;2022-08-21T13:20:36;29.70;48.80
22383;DHT22;11359;45.802;13.530;2022-08-21T13:23:23;29.80;48.70
22383;DHT22;11359;45.802;13.530;2022-08-21T13:25:49;29.90;48.50
22383;DHT22;11359;45.802;13.530;2022-08-21T13:28:15;30.00;47.70
22383;DHT22;11359;45.802;13.530;2022-08-21T13:30:44;30.10;47.70
22383;DHT22;11359;45.802;13.530;2022-08-21T13:33:11;30.20;47.60
22383;DHT22;11359;45.802;13.530;2022-08-21T13:35:51;30.40;47.60
22383;DHT22;11359;45.802;13.530;2022-08-21T13:38:20;30.50;46.80
22383;DHT22;11359;45.802;13.530;2022-08-21T13:40:53;30.70;46.40
22383;DHT22;11359;45.802;13.530;2022-08-21T13:43:22;30.80;46.10
22383;DHT22;11359;45.802;13.530;2022-08-21T13:45:54;31.00;46.30
22383;DHT22;11359;45.802;13.530;2022-08-21T13:48:23;31.10;46.30
22383;DHT22;11359;45.802;13.530;2022-08-21T13:50:51;31.30;45.90
22383;DHT22;11359;45.802;13.530;2022-08-21T13:55:53;31.70;45.60
22383;DHT22;11359;45.802;13.530;2022-08-21T13:58:48;31.90;45.60
22383;DHT22;11359;45.802;13.530;2022-08-21T14:01:26;32.10;45.80
22383;DHT22;11359;45.802;13.530;2022-08-21T14:03:55;32.30;45.70
22383;DHT22;11359;45.802;13.530;2022-08-21T14:06:25;32.50;45.80
22383;DHT22;11359;45.802;13.530;2022-08-21T14:09:00;32.60;45.80
22383;DHT22;11359;45.802;13.530;2022-08-21T14:11:31;32.90;45.80
22383;DHT22;11359;45.802;13.530;2022-08-21T14:14:01;33.10;45.50
22383;DHT22;11359;45.802;13.530;2022-08-21T14:16:42;33.30;44.80
22383;DHT22;11359;45.802;13.530;2022-08-21T14:21:44;33.60;44.40
22383;DHT22;11359;45.802;13.530;2022-08-21T14:24:26;33.80;44.60
22383;DHT22;11359;45.802;13.530;2022-08-21T14:27:06;34.00;44.20
22383;DHT22;11359;45.802;13.530;2022-08-21T14:29:43;34.10;43.20
22383;DHT22;11359;45.802;13.530;2022-08-21T14:32:30;34.10;42.70
22383;DHT22;11359;45.802;13.530;2022-08-21T14:35:01;34.10;42.00
22383;DHT22;11359;45.802;13.530;2022-08-21T14:37:26;34.10;41.70
22383;DHT22;11359;45.802;13.530;2022-08-21T14:39:52;34.10;41.70
22383;DHT22;11359;45.802;13.530;2022-08-21T14:42:18;34.10;42.00
22383;DHT22;11359;45.802;13.530;2022-08-21T14:44:44;34.10;41.90
22383;DHT22;11359;45.802;13.530;2022-08-21T14:47:10;34.20;42.30
22383;DHT22;11359;45.802;13.530;2022-08-21T14:49:36;34.40;42.60
22383;DHT22;11359;45.802;13.530;2022-08-21T14:52:02;34.60;42.90
22383;DHT22;11359;45.802;13.530;2022-08-21T14:54:30;34.70;43.00
22383;DHT22;11359;45.802;13.530;2022-08-21T14:57:02;35.00;42.80
22383;DHT22;11359;45.802;13.530;2022-08-21T14:59:29;35.20;42.80
22383;DHT22;11359;45.802;13.530;2022-08-21T15:01:55;35.40;42.80
22383;DHT22;11359;45.802;13.530;2022-08-21T15:04:21;35.60;42.60
22383;DHT22;11359;45.802;13.530;2022-08-21T15:06:47;35.80;42.40
22383;DHT22;11359;45.802;13.530;2022-08-21T15:09:12;36.00;42.20
22383;DHT22;11359;45.802;13.530;2022-08-21T15:11:38;36.20;42.10
22383;DHT22;11359;45.802;13.530;2022-08-21T15:14:07;36.30;41.70
22383;DHT22;11359;45.802;13.530;2022-08-21T15:16:36;36.30;40.90
22383;DHT22;11359;45.802;13.530;2022-08-21T15:19:02;36.30;40.30
22383;DHT22;11359;45.802;13.530;2022-08-21T15:21:28;36.30;40.30
22383;DHT22;11359;45.802;13.530;2022-08-21T15:23:54;36.30;40.40
22383;DHT22;11359;45.802;13.530;2022-08-21T15:26:21;36.40;40.60
22383;DHT22;11359;45.802;13.530;2022-08-21T15:28:47;36.40;40.20
22383;DHT22;11359;45.802;13.530;2022-08-21T15:31:13;36.30;39.50
22383;DHT22;11359;45.802;13.530;2022-08-21T15:33:39;36.20;39.00
22383;DHT22;11359;45.802;13.530;2022-08-21T15:36:05;36.00;38.80
22383;DHT22;11359;45.802;13.530;2022-08-21T15:38:30;35.80;38.70
22383;DHT22;11359;45.802;13.530;2022-08-21T15:40:56;35.50;38.70
22383;DHT22;11359;45.802;13.530;2022-08-21T15:43:24;35.30;38.90
22383;DHT22;11359;45.802;13.530;2022-08-21T15:45:50;35.10;38.90
22383;DHT22;11359;45.802;13.530;2022-08-21T15:48:16;34.90;39.00
22383;DHT22;11359;45.802;13.530;2022-08-21T15:50:42;34.70;39.00
22383;DHT22;11359;45.802;13.530;2022-08-21T15:53:08;34.60;38.90
22383;DHT22;11359;45.802;13.530;2022-08-21T15:55:34;34.40;38.80
22383;DHT22;11359;45.802;13.530;2022-08-21T15:58:00;34.30;38.80
22383;DHT22;11359;45.802;13.530;2022-08-21T16:00:26;34.10;39.00
22383;DHT22;11359;45.802;13.530;2022-08-21T16:02:55;34.00;39.30
22383;DHT22;11359;45.802;13.530;2022-08-21T16:05:22;33.90;39.50
22383;DHT22;11359;45.802;13.530;2022-08-21T16:07:50;33.80;39.70
22383;DHT22;11359;45.802;13.530;2022-08-21T16:10:18;33.80;39.90
22383;DHT22;11359;45.802;13.530;2022-08-21T16:12:56;33.70;40.00
22383;DHT22;11359;45.802;13.530;2022-08-21T16:15:22;33.60;40.00
22383;DHT22;11359;45.802;13.530;2022-08-21T16:17:50;33.60;40.20
22383;DHT22;11359;45.802;13.530;2022-08-21T16:20:23;33.50;40.10
22383;DHT22;11359;45.802;13.530;2022-08-21T16:22:49;33.40;40.20
22383;DHT22;11359;45.802;13.530;2022-08-21T16:25:16;33.40;40.30
22383;DHT22;11359;45.802;13.530;2022-08-21T16:27:47;33.20;40.20
22383;DHT22;11359;45.802;13.530;2022-08-21T16:30:15;33.10;40.30
22383;DHT22;11359;45.802;13.530;2022-08-21T16:32:42;32.90;40.30
22383;DHT22;11359;45.802;13.530;2022-08-21T16:35:12;32.70;40.30
22383;DHT22;11359;45.802;13.530;2022-08-21T16:37:39;32.60;40.50
22383;DHT22;11359;45.802;13.530;2022-08-21T16:40:06;32.50;40.70
22383;DHT22;11359;45.802;13.530;2022-08-21T16:42:34;32.30;40.90
22383;DHT22;11359;45.802;13.530;2022-08-21T16:45:00;32.20;41.10
22383;DHT22;11359;45.802;13.530;2022-08-21T16:47:29;32.10;41.50
22383;DHT22;11359;45.802;13.530;2022-08-21T16:49:56;32.00;41.70